createdAt,value
2023-05-09T00:01:14.565Z,82.68
2023-05-09T00:03:47.811Z,82.92
2023-05-09T00:06:20.712Z,82.92
2023-05-09T00:08:53.525Z,83.03
2023-05-09T00:11:26.481Z,82.59
2023-05-09T00:13:59.375Z,82.11
2023-05-09T00:16:33.481Z,82.21
2023-05-09T00:19:07.307Z,82.40
2023-05-09T00:21:40.143Z,82.80
2023-05-09T00:24:12.886Z,83.22
2023-05-09T00:26:45.624Z,83.89
2023-05-09T00:29:18.379Z,84.53
2023-05-09T00:31:51.220Z,85.21
2023-05-09T00:34:24.457Z,85.97
2023-05-09T00:36:57.294Z,86.43
2023-05-09T00:39:30.284Z,87.18
2023-05-09T00:42:03.851Z,87.60
2023-05-09T00:44:36.801Z,88.09
2023-05-09T00:47:10.095Z,88.79
2023-05-09T00:49:42.947Z,89.18
2023-05-09T00:52:15.806Z,89.38
2023-05-09T00:54:48.886Z,89.78
2023-05-09T00:57:21.971Z,90.45
2023-05-09T00:59:55.048Z,90.15
2023-05-09T01:02:28.092Z,90.42
2023-05-09T01:05:02.177Z,90.70
2023-05-09T01:07:42.287Z,90.96
2023-05-09T01:10:28.615Z,91.53
2023-05-09T01:13:06.466Z,91.58
2023-05-09T01:15:44.074Z,91.69
2023-05-09T01:18:35.931Z,91.88
2023-05-09T01:21:16.165Z,91.85
2023-05-09T01:24:02.424Z,91.80
2023-05-09T01:26:54.641Z,91.70
2023-05-09T01:29:55.584Z,91.89
2023-05-09T01:32:30.520Z,91.97
2023-05-09T01:35:05.358Z,92.42
2023-05-09T01:37:40.611Z,92.78
2023-05-09T01:40:20.422Z,93.00
2023-05-09T01:43:06.030Z,93.10
2023-05-09T01:45:40.222Z,93.03
2023-05-09T01:48:13.584Z,93.60
2023-05-09T01:50:47.464Z,93.57
2023-05-09T01:53:20.557Z,93.87
2023-05-09T01:55:54.025Z,94.15
2023-05-09T01:58:28.378Z,94.59
2023-05-09T02:01:00.563Z,94.61
2023-05-09T02:03:34.464Z,94.87
2023-05-09T02:06:07.721Z,94.92
2023-05-09T02:08:41.406Z,94.51
2023-05-09T02:11:14.162Z,94.66
2023-05-09T02:13:47.055Z,94.53
2023-05-09T02:16:21.326Z,94.35
2023-05-09T02:18:54.137Z,93.93
2023-05-09T02:21:29.185Z,93.93
2023-05-09T02:24:03.116Z,93.81
2023-05-09T02:26:37.893Z,93.82
2023-05-09T02:29:11.188Z,93.81
2023-05-09T02:31:44.961Z,93.98
2023-05-09T02:34:19.219Z,93.92
2023-05-09T02:36:52.004Z,93.69
2023-05-09T02:39:24.969Z,93.63
2023-05-09T02:42:00.761Z,93.56
2023-05-09T02:44:33.602Z,93.67
2023-05-09T02:47:07.860Z,93.60
2023-05-09T02:49:41.057Z,93.59
2023-05-09T02:52:13.953Z,93.56
2023-05-09T02:54:48.600Z,93.31
2023-05-09T02:57:21.553Z,93.77
2023-05-09T02:59:54.274Z,93.97
2023-05-09T03:02:27.770Z,94.14
2023-05-09T03:05:01.455Z,93.85
2023-05-09T03:07:35.249Z,93.99
2023-05-09T03:10:11.027Z,93.91
2023-05-09T03:12:44.060Z,93.52
2023-05-09T03:15:17.381Z,93.17
2023-05-09T03:17:51.144Z,93.12
2023-05-09T03:20:27.651Z,92.87
2023-05-09T03:23:00.846Z,92.89
2023-05-09T03:25:33.819Z,92.39
2023-05-09T03:28:07.405Z,91.78
2023-05-09T03:30:40.851Z,91.80
2023-05-09T03:33:15.866Z,91.99
2023-05-09T03:35:48.864Z,91.75
2023-05-09T03:38:23.964Z,91.61
2023-05-09T03:40:56.925Z,91.12
2023-05-09T03:43:30.745Z,91.34
2023-05-09T03:46:04.331Z,91.20
2023-05-09T03:48:37.687Z,90.21
2023-05-09T03:51:12.410Z,89.46
2023-05-09T03:53:48.165Z,88.69
2023-05-09T03:56:21.188Z,88.22
2023-05-09T03:58:54.718Z,87.98
2023-05-09T04:01:28.083Z,87.58
2023-05-09T04:04:01.608Z,86.47
2023-05-09T04:06:37.382Z,85.83
2023-05-09T04:09:11.765Z,85.31
2023-05-09T04:11:46.854Z,84.48
2023-05-09T04:14:20.502Z,84.56
2023-05-09T04:16:53.510Z,84.70
2023-05-09T04:19:26.288Z,85.00
2023-05-09T04:21:59.583Z,85.07
2023-05-09T04:24:32.824Z,85.35
2023-05-09T04:27:05.873Z,85.06
2023-05-09T04:29:39.561Z,84.80
2023-05-09T04:32:12.694Z,84.68
2023-05-09T04:34:45.561Z,84.43
2023-05-09T04:37:20.419Z,84.28
2023-05-09T04:39:53.246Z,84.22
2023-05-09T04:42:27.747Z,83.76
2023-05-09T04:45:01.084Z,82.67
2023-05-09T04:47:34.569Z,83.02
2023-05-09T04:50:09.417Z,83.35
2023-05-09T04:52:42.980Z,82.84
2023-05-09T04:55:16.240Z,82.23
2023-05-09T04:57:50.972Z,82.34
2023-05-09T05:00:24.513Z,81.77
2023-05-09T05:02:57.413Z,81.19
2023-05-09T05:05:32.461Z,80.78
2023-05-09T05:08:06.507Z,80.49
2023-05-09T05:10:40.933Z,80.90
2023-05-09T05:13:15.830Z,81.14
2023-05-09T05:15:50.659Z,82.10
2023-05-09T05:18:25.180Z,81.97
2023-05-09T05:20:58.953Z,82.12
2023-05-09T05:23:31.989Z,82.13
2023-05-09T05:26:05.566Z,82.10
2023-05-09T05:28:38.970Z,81.37
2023-05-09T05:31:11.831Z,81.13
2023-05-09T05:33:44.667Z,81.32
2023-05-09T05:36:17.563Z,81.38
2023-05-09T05:38:51.842Z,81.66
2023-05-09T05:41:24.594Z,82.24
2023-05-09T05:43:57.841Z,83.42
2023-05-09T05:46:31.039Z,82.84
2023-05-09T05:49:03.821Z,82.05
2023-05-09T05:51:38.854Z,81.48
2023-05-09T05:54:12.052Z,81.26
2023-05-09T05:56:44.932Z,82.10
2023-05-09T05:59:18.094Z,81.38
2023-05-09T06:01:51.562Z,81.29
2023-05-09T06:04:25.237Z,80.33
2023-05-09T06:06:58.934Z,79.92
2023-05-09T06:09:32.029Z,80.42
2023-05-09T06:12:05.243Z,80.22
2023-05-09T06:14:38.718Z,80.28
2023-05-09T06:17:12.204Z,79.00
2023-05-09T06:19:45.220Z,75.11
2023-05-09T06:22:18.713Z,73.92
2023-05-09T06:24:52.582Z,73.63
2023-05-09T06:27:25.884Z,73.25
2023-05-09T06:29:58.986Z,71.93
2023-05-09T06:32:31.921Z,71.63
2023-05-09T06:35:04.896Z,70.23
2023-05-09T06:37:37.744Z,70.92
2023-05-09T06:40:11.726Z,69.73
2023-05-09T06:42:45.657Z,68.96
2023-05-09T06:45:20.268Z,67.14
2023-05-09T06:47:53.520Z,67.23
2023-05-09T06:50:26.488Z,65.08
2023-05-09T06:52:59.480Z,64.49
2023-05-09T06:55:32.286Z,65.14
2023-05-09T06:58:06.116Z,65.08
2023-05-09T07:00:39.048Z,63.93
2023-05-09T07:03:12.400Z,63.82
2023-05-09T07:05:45.263Z,63.98
2023-05-09T07:08:18.509Z,63.95
2023-05-09T07:10:51.366Z,63.14
2023-05-09T07:13:24.582Z,62.85
2023-05-09T07:15:58.106Z,63.68
2023-05-09T07:18:31.115Z,64.24
2023-05-09T07:21:04.072Z,65.36
2023-05-09T07:23:37.820Z,66.22
2023-05-09T07:26:10.712Z,66.43
2023-05-09T07:28:44.178Z,66.25
2023-05-09T07:31:17.149Z,64.53
2023-05-09T07:33:50.233Z,63.32
2023-05-09T07:36:23.380Z,63.44
2023-05-09T07:38:56.305Z,63.17
2023-05-09T07:41:29.090Z,61.71
2023-05-09T07:47:46.998Z,62.09
2023-05-09T07:50:20.154Z,61.19
2023-05-09T07:52:53.380Z,57.77
2023-05-09T07:55:26.561Z,56.86
2023-05-09T07:57:59.854Z,57.30
2023-05-09T08:00:33.317Z,56.93
2023-05-09T08:03:06.592Z,55.50
2023-05-09T08:05:41.429Z,55.61
2023-05-09T08:08:14.588Z,53.15
2023-05-09T08:10:47.763Z,52.06
2023-05-09T08:13:22.644Z,53.27
2023-05-09T08:15:55.954Z,53.87
2023-05-09T08:18:29.282Z,54.07
2023-05-09T08:21:02.529Z,53.76
2023-05-09T08:23:36.316Z,52.14
2023-05-09T08:26:09.695Z,52.60
2023-05-09T08:28:42.953Z,51.94
2023-05-09T08:31:16.728Z,50.50
2023-05-09T08:33:49.896Z,50.69
2023-05-09T08:36:23.137Z,50.30
2023-05-09T08:38:56.265Z,49.71
2023-05-09T08:41:29.828Z,49.72
2023-05-09T08:44:03.297Z,50.39
2023-05-09T08:46:42.170Z,49.90
2023-05-09T08:49:16.019Z,50.62
2023-05-09T08:51:50.972Z,50.05
2023-05-09T08:54:26.111Z,50.02
2023-05-09T08:56:59.576Z,49.70
2023-05-09T08:59:35.585Z,49.94
2023-05-09T09:02:09.481Z,49.70
2023-05-09T09:04:43.001Z,49.71
2023-05-09T09:07:17.444Z,49.97
2023-05-09T09:09:52.450Z,50.60
2023-05-09T09:12:26.557Z,52.08
2023-05-09T09:15:04.125Z,51.82
2023-05-09T09:17:39.690Z,51.85
2023-05-09T09:20:15.965Z,52.44
2023-05-09T09:22:51.142Z,52.74
2023-05-09T09:25:24.339Z,52.33
2023-05-09T09:27:57.589Z,52.52
2023-05-09T09:30:30.857Z,52.31
2023-05-09T09:33:04.279Z,50.61
2023-05-09T09:35:43.842Z,50.57
2023-05-09T09:38:18.037Z,50.35
2023-05-09T09:40:59.501Z,51.36
2023-05-09T09:43:33.837Z,51.25
2023-05-09T09:46:07.838Z,51.42
2023-05-09T09:48:41.052Z,51.77
2023-05-09T09:51:14.424Z,52.74
2023-05-09T09:53:47.684Z,52.11
2023-05-09T09:56:22.349Z,51.82
2023-05-09T09:59:11.436Z,50.06
2023-05-09T10:02:00.800Z,49.71
2023-05-09T10:04:38.318Z,49.38
2023-05-09T10:07:15.155Z,48.78
2023-05-09T10:09:49.774Z,48.14
2023-05-09T10:12:23.966Z,48.33
2023-05-09T10:14:57.435Z,48.02
2023-05-09T10:17:32.968Z,47.52
2023-05-09T10:20:08.355Z,47.54
2023-05-09T10:22:42.378Z,47.48
2023-05-09T10:25:29.609Z,47.14
2023-05-09T10:28:03.529Z,47.74
2023-05-09T10:30:40.173Z,47.42
2023-05-09T10:33:14.621Z,48.09
2023-05-09T10:35:49.238Z,47.52
2023-05-09T10:38:22.765Z,47.77
2023-05-09T10:40:56.378Z,46.92
2023-05-09T10:46:05.521Z,48.27
2023-05-09T10:48:40.407Z,47.58
2023-05-09T10:51:14.311Z,46.71
2023-05-09T10:53:50.194Z,47.00
2023-05-09T10:56:36.741Z,46.10
2023-05-09T10:59:37.802Z,46.28
2023-05-09T11:02:24.602Z,45.64
2023-05-09T11:05:20.589Z,46.09
2023-05-09T11:08:23.142Z,46.64
2023-05-09T11:10:58.179Z,46.27
2023-05-09T11:13:33.836Z,45.52
2023-05-09T11:16:11.222Z,45.67
2023-05-09T11:18:54.829Z,45.36
2023-05-09T11:21:29.503Z,46.04
2023-05-09T11:24:02.749Z,46.68
2023-05-09T11:26:36.029Z,46.43
2023-05-09T11:29:10.365Z,46.98
2023-05-09T11:31:51.140Z,47.40
2023-05-09T11:34:25.200Z,46.30
2023-05-09T11:37:14.044Z,46.16
2023-05-09T11:40:05.329Z,46.41
2023-05-09T11:42:38.599Z,45.89
2023-05-09T11:45:13.826Z,46.56
2023-05-09T11:47:49.937Z,46.71
2023-05-09T11:50:23.513Z,46.37
2023-05-09T11:52:56.954Z,46.84
2023-05-09T11:55:34.212Z,47.26
2023-05-09T11:58:09.401Z,47.55
2023-05-09T12:00:48.701Z,46.77
2023-05-09T12:03:22.560Z,45.78
2023-05-09T12:05:58.029Z,45.33
2023-05-09T12:08:31.359Z,45.09
2023-05-09T12:11:11.247Z,46.91
2023-05-09T12:13:53.386Z,47.15
2023-05-09T12:16:26.548Z,46.72
2023-05-09T12:18:59.812Z,46.05
2023-05-09T12:21:33.733Z,46.38
2023-05-09T12:24:07.476Z,46.69
2023-05-09T12:26:41.804Z,48.03
2023-05-09T12:29:14.536Z,49.09
2023-05-09T12:31:49.299Z,49.94
2023-05-09T12:34:22.529Z,50.53
2023-05-09T12:36:55.934Z,50.19
2023-05-09T12:39:29.381Z,49.62
2023-05-09T12:42:02.642Z,50.29
2023-05-09T12:44:35.935Z,50.37
2023-05-09T12:47:09.218Z,50.83
2023-05-09T12:49:42.591Z,49.66
2023-05-09T12:52:20.962Z,49.53
2023-05-09T12:54:55.329Z,50.83
2023-05-09T12:57:31.428Z,50.91
2023-05-09T13:00:06.775Z,50.25
2023-05-09T13:02:45.075Z,50.62
2023-05-09T13:05:21.052Z,52.92
2023-05-09T13:07:58.178Z,53.04
2023-05-09T13:10:31.760Z,52.95
2023-05-09T13:13:06.601Z,52.95
2023-05-09T13:15:39.800Z,53.18
2023-05-09T13:18:14.030Z,53.27
2023-05-09T13:20:52.399Z,53.36
2023-05-09T13:23:28.818Z,53.59
2023-05-09T13:26:01.956Z,55.40
2023-05-09T13:28:35.464Z,55.82
2023-05-09T13:31:08.822Z,56.88
2023-05-09T13:33:42.661Z,58.90
2023-05-09T13:36:18.684Z,59.75
2023-05-09T13:38:51.974Z,61.15
2023-05-09T13:41:25.323Z,61.85
2023-05-09T13:43:58.526Z,62.84
2023-05-09T13:46:31.696Z,64.01
2023-05-09T13:49:04.894Z,65.21
2023-05-09T13:51:38.758Z,65.88
2023-05-09T13:54:16.302Z,65.94
2023-05-09T13:56:49.605Z,67.99
2023-05-09T13:59:22.894Z,69.80
2023-05-09T14:01:58.832Z,72.12
2023-05-09T14:04:32.893Z,73.23
2023-05-09T14:07:07.199Z,75.08
2023-05-09T14:09:40.793Z,75.80
2023-05-09T14:12:16.665Z,76.64
2023-05-09T14:14:49.724Z,78.00
2023-05-09T14:17:22.917Z,78.58
2023-05-09T14:19:56.271Z,79.38
2023-05-09T14:22:29.533Z,79.32
2023-05-09T14:25:02.645Z,80.32
2023-05-09T14:27:39.830Z,81.10
2023-05-09T14:30:13.851Z,82.34
2023-05-09T14:32:51.228Z,82.51
2023-05-09T14:35:24.465Z,82.83
2023-05-09T14:37:57.589Z,83.43
2023-05-09T14:40:32.365Z,83.59
2023-05-09T14:43:06.256Z,84.11
2023-05-09T14:45:39.765Z,84.71
2023-05-09T14:48:15.883Z,84.69
2023-05-09T14:50:47.831Z,85.43
2023-05-09T14:53:22.925Z,86.23
2023-05-09T14:55:56.578Z,86.49
2023-05-09T14:58:31.279Z,86.59
2023-05-09T15:01:04.839Z,86.75
2023-05-09T15:03:39.666Z,87.10
2023-05-09T15:06:14.875Z,87.80
2023-05-09T15:08:48.059Z,87.92
2023-05-09T15:11:22.531Z,88.55
2023-05-09T15:13:56.648Z,89.11
2023-05-09T15:16:29.919Z,89.41
2023-05-09T15:19:05.139Z,88.72
2023-05-09T15:21:38.687Z,89.10
2023-05-09T15:24:12.502Z,89.10
2023-05-09T15:26:46.053Z,89.27
2023-05-09T15:29:19.461Z,89.51
2023-05-09T15:31:52.814Z,89.60
2023-05-09T15:34:26.018Z,89.45
2023-05-09T15:36:59.163Z,89.49
2023-05-09T15:39:36.445Z,89.65
2023-05-09T15:42:12.294Z,90.01
2023-05-09T15:44:47.618Z,90.77
2023-05-09T15:47:20.922Z,90.72
2023-05-09T15:49:54.116Z,91.22
2023-05-09T15:52:28.256Z,91.07
2023-05-09T15:55:02.084Z,91.31
2023-05-09T15:57:36.504Z,91.25
2023-05-09T16:00:10.512Z,91.18
2023-05-09T16:02:45.986Z,91.22
2023-05-09T16:05:19.591Z,91.10
2023-05-09T16:07:53.803Z,91.30
2023-05-09T16:10:27.302Z,91.49
2023-05-09T16:13:00.828Z,91.44
2023-05-09T16:15:34.417Z,91.58
2023-05-09T16:18:07.624Z,91.72
2023-05-09T16:20:42.347Z,92.20
2023-05-09T16:23:15.579Z,92.43
2023-05-09T16:25:50.113Z,92.48
2023-05-09T16:28:27.700Z,92.75
2023-05-09T16:31:08.608Z,92.91
2023-05-09T16:33:41.972Z,92.90
2023-05-09T16:36:18.349Z,92.92
2023-05-09T16:38:51.470Z,93.08
2023-05-09T16:41:24.553Z,93.18
2023-05-09T16:43:59.075Z,93.25
2023-05-09T16:46:32.279Z,93.24
2023-05-09T16:49:05.444Z,93.55
2023-05-09T16:51:38.977Z,93.78
2023-05-09T16:54:12.605Z,94.00
2023-05-09T16:56:45.982Z,93.80
2023-05-09T16:59:20.503Z,93.60
2023-05-09T17:01:54.246Z,94.16
2023-05-09T17:04:27.779Z,94.82
2023-05-09T17:07:01.079Z,95.79
2023-05-09T17:09:34.644Z,96.76
2023-05-09T17:12:08.184Z,97.15
2023-05-09T17:14:41.960Z,97.45
2023-05-09T17:17:15.819Z,97.35
2023-05-09T17:19:49.085Z,97.43
2023-05-09T17:22:22.262Z,97.64
2023-05-09T17:24:56.126Z,97.88
2023-05-09T17:27:29.321Z,97.53
2023-05-09T17:30:02.590Z,97.77
2023-05-09T17:32:37.704Z,98.01
2023-05-09T17:35:12.582Z,97.76
2023-05-09T17:37:45.960Z,96.99
2023-05-09T17:40:19.203Z,96.88
2023-05-09T17:42:53.202Z,96.67
2023-05-09T17:45:27.589Z,96.75
2023-05-09T17:48:01.701Z,96.76
2023-05-09T17:50:35.371Z,96.30
2023-05-09T17:53:09.748Z,96.21
2023-05-09T17:55:44.627Z,96.25
2023-05-09T17:58:17.784Z,96.29
2023-05-09T18:00:52.504Z,96.30
2023-05-09T18:03:26.011Z,96.20
2023-05-09T18:06:00.755Z,96.49
2023-05-09T18:08:33.894Z,96.41
2023-05-09T18:11:06.995Z,96.12
2023-05-09T18:13:40.444Z,96.07
2023-05-09T18:16:13.674Z,95.48
2023-05-09T18:18:46.944Z,95.36
2023-05-09T18:21:20.454Z,95.68
2023-05-09T18:23:53.913Z,95.68
2023-05-09T18:26:28.751Z,95.04
2023-05-09T18:29:01.866Z,95.45
2023-05-09T18:31:37.312Z,95.79
2023-05-09T18:34:11.118Z,95.65
2023-05-09T18:36:44.718Z,95.46
2023-05-09T18:39:18.008Z,95.52
2023-05-09T18:41:51.457Z,95.64
2023-05-09T18:44:24.600Z,95.57
2023-05-09T18:46:58.516Z,96.20
2023-05-09T18:49:31.644Z,96.33
2023-05-09T18:52:04.914Z,96.24
2023-05-09T18:54:38.518Z,96.90
2023-05-09T18:57:11.812Z,96.88
2023-05-09T18:59:45.963Z,97.22
2023-05-09T19:02:19.691Z,96.98
2023-05-09T19:04:52.889Z,96.64
2023-05-09T19:07:26.794Z,96.39
2023-05-09T19:10:00.768Z,96.59
2023-05-09T19:12:35.638Z,96.65
2023-05-09T19:15:10.511Z,96.65
2023-05-09T19:17:45.732Z,96.78
2023-05-09T19:20:19.057Z,97.04
2023-05-09T19:22:52.464Z,96.73
2023-05-09T19:25:26.109Z,97.06
2023-05-09T19:27:59.294Z,97.25
2023-05-09T19:30:32.855Z,97.39
2023-05-09T19:33:06.372Z,97.11
2023-05-09T19:35:40.280Z,96.85
2023-05-09T19:38:13.566Z,96.83
2023-05-09T19:40:46.710Z,96.89
2023-05-09T19:43:20.102Z,96.50
2023-05-09T19:45:53.664Z,96.34
2023-05-09T19:48:27.049Z,96.29
2023-05-09T19:51:00.699Z,96.08
2023-05-09T19:53:33.927Z,96.08
2023-05-09T19:56:08.358Z,96.53
2023-05-09T19:58:40.885Z,96.46
2023-05-09T20:01:14.141Z,96.49
2023-05-09T20:03:51.965Z,96.59
2023-05-09T20:06:26.154Z,96.59
2023-05-09T20:08:59.456Z,96.92
2023-05-09T20:11:32.702Z,96.90
2023-05-09T20:14:06.072Z,97.17
2023-05-09T20:16:39.878Z,97.30
2023-05-09T20:19:16.070Z,97.10
2023-05-09T20:21:49.189Z,97.21
2023-05-09T20:24:22.910Z,97.17
2023-05-09T20:26:55.994Z,97.08
2023-05-09T20:29:29.647Z,96.97
2023-05-09T20:32:03.043Z,97.17
2023-05-09T20:34:36.277Z,97.25
2023-05-09T20:37:09.259Z,97.32
2023-05-09T20:39:42.458Z,97.24
2023-05-09T20:42:15.836Z,97.30
2023-05-09T20:44:50.953Z,97.47
2023-05-09T20:47:24.031Z,97.75
2023-05-09T20:49:58.509Z,97.78
2023-05-09T20:52:31.852Z,97.92
2023-05-09T20:55:07.155Z,98.02
2023-05-09T20:57:41.089Z,98.30
2023-05-09T21:00:15.813Z,98.40
2023-05-09T21:02:49.532Z,98.46
2023-05-09T21:05:22.834Z,98.53
2023-05-09T21:07:56.066Z,98.35
2023-05-09T21:10:29.265Z,98.11
2023-05-09T21:13:02.736Z,98.28
2023-05-09T21:15:36.047Z,98.65
2023-05-09T21:18:09.254Z,98.95
2023-05-09T21:20:42.617Z,98.68
2023-05-09T21:23:15.870Z,98.05
2023-05-09T21:25:49.094Z,98.25
2023-05-09T21:28:22.652Z,98.03
2023-05-09T21:30:56.419Z,97.96
2023-05-09T21:33:29.661Z,98.04
2023-05-09T21:36:02.890Z,97.75
2023-05-09T21:38:36.319Z,97.59
2023-05-09T21:41:10.396Z,97.85
2023-05-09T21:43:43.602Z,97.74
2023-05-09T21:46:17.085Z,97.86
2023-05-09T21:48:50.219Z,97.79
2023-05-09T21:51:23.624Z,97.92
2023-05-09T21:53:56.647Z,97.91
2023-05-09T21:56:29.716Z,97.52
2023-05-09T21:59:02.792Z,97.42
2023-05-09T22:01:35.971Z,97.19
2023-05-09T22:04:09.127Z,96.26
2023-05-09T22:06:42.965Z,96.14
2023-05-09T22:09:16.283Z,95.87
2023-05-09T22:11:49.357Z,95.44
2023-05-09T22:14:22.456Z,95.32
2023-05-09T22:16:55.868Z,95.33
2023-05-09T22:19:29.217Z,95.42
2023-05-09T22:22:02.443Z,95.70
2023-05-09T22:24:36.758Z,95.59
2023-05-09T22:27:12.973Z,95.40
2023-05-09T22:29:46.901Z,95.09
2023-05-09T22:32:20.074Z,94.96
2023-05-09T22:34:54.379Z,94.81
2023-05-09T22:37:26.564Z,94.62
2023-05-09T22:40:01.403Z,94.13
2023-05-09T22:42:35.044Z,94.00
2023-05-09T22:45:09.471Z,93.94
2023-05-09T22:47:43.021Z,93.81
2023-05-09T22:50:16.297Z,93.93
2023-05-09T22:52:50.224Z,94.11
2023-05-09T22:55:24.005Z,94.21
2023-05-09T22:57:57.308Z,94.36
2023-05-09T23:00:30.475Z,94.29
2023-05-09T23:03:06.599Z,94.07
2023-05-09T23:05:40.080Z,94.02
2023-05-09T23:08:13.361Z,94.33
2023-05-09T23:10:47.066Z,94.33
2023-05-09T23:13:20.278Z,94.31
2023-05-09T23:15:54.156Z,94.29
2023-05-09T23:18:28.500Z,94.45
2023-05-09T23:21:01.762Z,94.53
2023-05-09T23:23:35.077Z,94.67
2023-05-09T23:26:08.676Z,94.92
2023-05-09T23:28:42.360Z,95.09
2023-05-09T23:31:16.050Z,95.25
2023-05-09T23:33:49.319Z,95.53
2023-05-09T23:36:22.472Z,95.53
2023-05-09T23:38:56.069Z,95.42
2023-05-09T23:41:29.503Z,95.17
2023-05-09T23:44:03.828Z,95.14
2023-05-09T23:46:37.146Z,95.19
2023-05-09T23:49:10.420Z,95.42
2023-05-09T23:51:43.591Z,95.29
2023-05-09T23:54:16.938Z,95.43
2023-05-09T23:56:50.698Z,95.77
2023-05-09T23:59:23.806Z,95.96
